KPXE

Perry-Houston County Airport

Perry, Georgia, USA
METAR KPXE 160555Z AUTO 00000KT 10SM CLR 23/22 A3011 RMK AO2 T02270220 10280 20227
Observed Flight Rules
Aug-16 @ 05:55 UTC (21 minutes ago) Visual Flight Rules
Visibility Clouds
10 miles
  • Clear skies
Temperatures Readings
Current 23°C / 73°F
Dewpoint 22°C / 72°F
Humidity 94%
Altimeter 30.11" Hg
Pressure 1020 hPa
Elevation 127
METAR KPXE 160555Z AUTO 00000KT 10SM CLR 23/22 A3011 RMK AO2 T02270220 10280 20227
Observed Flight Rules
Aug-16 @ 05:55 UTC
(21 minutes ago)
VFR
Clouds
  • Clear skies
Temperature Dewpoint
23°C / 73°F 22°C / 72°F
Humidity Altimeter Pressure
94% 30.11" Hg 1020 hPa